Sulphur Enterprise — KAKB — position and weather

sailwx.info

Track history (hours):
 
Tides and Currents Weather Stations Pressure Air Temp Water Temp Dewpoint Dewpoint Depression Visibility Wind Speed Wind Dir Waves Ship Positions

Sulphur Enterprise

Owner: SULPHUR CARRIERS INC, RALEIGH, NC. More information available from US FCC via Universal Licensing System and Coast Guard Vessel Documentation Center.

Last reported at 2017-Sep-15 17:28 UTC. Time now 2017-Sep-19 20:44 UTC.
Position N 27°42' W 082°33'.

Length 160 m; draft 6.3 m.

Type: Cargo ship. MMSI: 303520000.

Date/timePositionNaut miles runAvg speedWind from/ knotsBaromVisibWave heightAir tempDewpointWater temp
2017-Sep-15 17:28N 27°42' W 082°33'613.2
2017-Sep-15 17:00N 27°47' W 082°31'510.3
2017-Sep-15 16:30N 27°51' W 082°27'4 8.9
2017-Sep-15 16:01N 27°55' W 082°27'1 1.3
2017-Sep-15 15:31N 27°56' W 082°27'0 0.0
2017-Sep-15 14:58N 27°56' W 082°27'0 0.0
2017-Sep-15 14:28N 27°56' W 082°27'0 0.0
2017-Sep-15 13:58N 27°56' W 082°27'0 0.0
2017-Sep-15 13:25N 27°56' W 082°27'0 0.0
2017-Sep-15 12:58N 27°56' W 082°27'0 0.0
2017-Sep-15 12:28N 27°56' W 082°27'0 0.0
2017-Sep-15 11:58N 27°56' W 082°27'0 0.0
2017-Sep-15 11:28N 27°56' W 082°27'0 0.0
2017-Sep-15 10:58N 27°56' W 082°27'0 0.0
2017-Sep-15 10:28N 27°56' W 082°27'0 0.0
2017-Sep-15 09:58N 27°56' W 082°27'0 0.0
2017-Sep-15 09:28N 27°56' W 082°27'0 0.0
2017-Sep-15 08:58N 27°56' W 082°27'0 0.0
2017-Sep-15 08:28N 27°56' W 082°27'0 0.0
2017-Sep-15 07:58N 27°56' W 082°27'0 0.0
2017-Sep-15 07:28N 27°56' W 082°27'0 0.0
2017-Sep-15 06:58N 27°56' W 082°27'0 0.0
2017-Sep-15 06:28N 27°56' W 082°27'0 0.0
2017-Sep-15 05:58N 27°56' W 082°27'0 0.0
2017-Sep-15 05:28N 27°56' W 082°27'0 0.0
2017-Sep-15 04:58N 27°56' W 082°27'0 0.0
2017-Sep-15 04:28N 27°56' W 082°27'0 0.0
2017-Sep-15 03:58N 27°56' W 082°27'0 0.0
2017-Sep-15 03:28N 27°56' W 082°27'0 0.0
2017-Sep-15 02:58N 27°56' W 082°27'0 0.0
2017-Sep-15 02:28N 27°56' W 082°27'0 0.0
2017-Sep-15 01:58N 27°56' W 082°27'0 0.0
2017-Sep-15 01:30N 27°56' W 082°27'1 1.0
2017-Sep-15 01:00N 27°56' W 082°27'1 1.2
2017-Sep-15 00:30N 27°56' W 082°27'2 4.2
2017-Sep-15 00:00N 27°54' W 082°26'4 8.3
2017-Sep-14 23:29N 27°49' W 082°27'5 9.6
2017-Sep-14 23:00N 27°47' W 082°31'611.0
2017-Sep-14 22:30N 27°42' W 082°33'  
2017-Sep-07 17:06N 27°37' W 082°40'211.5
2017-Sep-07 16:56N 27°38' W 082°38'511.4
2017-Sep-07 16:30N 27°42' W 082°34'611.3
2017-Sep-07 16:00N 27°47' W 082°31'510.8
2017-Sep-07 15:30N 27°50' W 082°27'5 9.6
2017-Sep-07 15:01N 27°55' W 082°27'1 1.7
2017-Sep-07 14:31N 27°56' W 082°27'0 0.0
2017-Sep-07 14:01N 27°56' W 082°27'0 0.0
2017-Sep-07 13:31N 27°56' W 082°27'0 0.0
2017-Sep-07 13:00N 27°56' W 082°27'0 0.0
2017-Sep-07 12:30N 27°56' W 082°27'0 0.0
2017-Sep-07 12:00N 27°56' W 082°27'0 0.0
2017-Sep-07 11:30N 27°56' W 082°27'0 0.0
2017-Sep-07 11:00N 27°56' W 082°27'0 0.0
2017-Sep-07 10:30N 27°56' W 082°27'0 0.0
2017-Sep-07 10:00N 27°56' W 082°27'0 0.0
2017-Sep-07 09:30N 27°56' W 082°27'0 0.0
2017-Sep-07 09:00N 27°56' W 082°27'0 0.0
2017-Sep-07 08:30N 27°56' W 082°27'0 0.0
2017-Sep-07 08:00N 27°56' W 082°27'0 0.0
2017-Sep-07 07:30N 27°56' W 082°27'0 0.0
2017-Sep-07 07:00N 27°56' W 082°27'0 0.0
2017-Sep-07 06:30N 27°56' W 082°27'0 0.0
2017-Sep-07 06:00N 27°56' W 082°27'0 0.0
2017-Sep-07 05:30N 27°56' W 082°27'0 0.0
2017-Sep-07 05:00N 27°56' W 082°27'0 0.0
2017-Sep-07 04:30N 27°56' W 082°27'0 0.0
2017-Sep-07 04:00N 27°56' W 082°27'0 0.0
2017-Sep-07 03:30N 27°56' W 082°27'0 0.0
2017-Sep-07 03:00N 27°56' W 082°27'0 0.0
2017-Sep-07 02:30N 27°56' W 082°27'0 0.0
2017-Sep-07 02:00N 27°56' W 082°27'0 0.0
2017-Sep-07 01:30N 27°56' W 082°27'0 0.0
2017-Sep-07 01:00N 27°56' W 082°27'0 0.0
2017-Sep-07 00:30N 27°56' W 082°27'0 0.0
2017-Sep-07 00:00N 27°56' W 082°27'0 0.0
2017-Sep-06 23:30N 27°56' W 082°27'0 0.0
2017-Sep-06 23:00N 27°56' W 082°27'0 0.0
2017-Sep-06 22:27N 27°56' W 082°27'0 0.0
2017-Sep-06 22:00N 27°56' W 082°27'1 1.4
2017-Sep-06 21:30N 27°56' W 082°27'1 1.7
2017-Sep-06 21:00N 27°56' W 082°27'2 4.5
2017-Sep-06 20:30N 27°53' W 082°26'5 9.9
2017-Sep-06 20:00N 27°49' W 082°27'5 9.5
2017-Sep-06 19:30N 27°46' W 082°31'5 9.5
2017-Sep-06 19:00N 27°41' W 082°34'  
Track history (hours):
 
Tides and Currents Weather Stations Pressure Air Temp Water Temp Dewpoint Dewpoint Depression Visibility Wind Speed Wind Dir Waves Ship Positions

Sulphur Enterprise

Owner: SULPHUR CARRIERS INC, RALEIGH, NC. More information available from US FCC via Universal Licensing System and Coast Guard Vessel Documentation Center.

Last reported at 2017-Sep-15 17:28 UTC. Time now 2017-Sep-19 20:44 UTC.
Position N 27°42' W 082°33'.

Length 160 m; draft 6.3 m.

Type: Cargo ship. MMSI: 303520000.

Date/timePositionNaut miles runAvg speedWind from/ knotsBaromVisibWave heightAir tempDewpointWater temp
2017-Sep-15 17:28N 27°42' W 082°33'613.2
2017-Sep-15 17:00N 27°47' W 082°31'510.3
2017-Sep-15 16:30N 27°51' W 082°27'4 8.9
2017-Sep-15 16:01N 27°55' W 082°27'1 1.3
2017-Sep-15 15:31N 27°56' W 082°27'0 0.0
2017-Sep-15 14:58N 27°56' W 082°27'0 0.0
2017-Sep-15 14:28N 27°56' W 082°27'0 0.0
2017-Sep-15 13:58N 27°56' W 082°27'0 0.0
2017-Sep-15 13:25N 27°56' W 082°27'0 0.0
2017-Sep-15 12:58N 27°56' W 082°27'0 0.0
2017-Sep-15 12:28N 27°56' W 082°27'0 0.0
2017-Sep-15 11:58N 27°56' W 082°27'0 0.0
2017-Sep-15 11:28N 27°56' W 082°27'0 0.0
2017-Sep-15 10:58N 27°56' W 082°27'0 0.0
2017-Sep-15 10:28N 27°56' W 082°27'0 0.0
2017-Sep-15 09:58N 27°56' W 082°27'0 0.0
2017-Sep-15 09:28N 27°56' W 082°27'0 0.0
2017-Sep-15 08:58N 27°56' W 082°27'0 0.0
2017-Sep-15 08:28N 27°56' W 082°27'0 0.0
2017-Sep-15 07:58N 27°56' W 082°27'0 0.0
2017-Sep-15 07:28N 27°56' W 082°27'0 0.0
2017-Sep-15 06:58N 27°56' W 082°27'0 0.0
2017-Sep-15 06:28N 27°56' W 082°27'0 0.0
2017-Sep-15 05:58N 27°56' W 082°27'0 0.0
2017-Sep-15 05:28N 27°56' W 082°27'0 0.0
2017-Sep-15 04:58N 27°56' W 082°27'0 0.0
2017-Sep-15 04:28N 27°56' W 082°27'0 0.0
2017-Sep-15 03:58N 27°56' W 082°27'0 0.0
2017-Sep-15 03:28N 27°56' W 082°27'0 0.0
2017-Sep-15 02:58N 27°56' W 082°27'0 0.0
2017-Sep-15 02:28N 27°56' W 082°27'0 0.0
2017-Sep-15 01:58N 27°56' W 082°27'0 0.0
2017-Sep-15 01:30N 27°56' W 082°27'1 1.0
2017-Sep-15 01:00N 27°56' W 082°27'1 1.2
2017-Sep-15 00:30N 27°56' W 082°27'2 4.2
2017-Sep-15 00:00N 27°54' W 082°26'4 8.3
2017-Sep-14 23:29N 27°49' W 082°27'5 9.6
2017-Sep-14 23:00N 27°47' W 082°31'611.0
2017-Sep-14 22:30N 27°42' W 082°33'  
2017-Sep-07 17:06N 27°37' W 082°40'211.5
2017-Sep-07 16:56N 27°38' W 082°38'511.4
2017-Sep-07 16:30N 27°42' W 082°34'611.3
2017-Sep-07 16:00N 27°47' W 082°31'510.8
2017-Sep-07 15:30N 27°50' W 082°27'5 9.6
2017-Sep-07 15:01N 27°55' W 082°27'1 1.7
2017-Sep-07 14:31N 27°56' W 082°27'0 0.0
2017-Sep-07 14:01N 27°56' W 082°27'0 0.0
2017-Sep-07 13:31N 27°56' W 082°27'0 0.0
2017-Sep-07 13:00N 27°56' W 082°27'0 0.0
2017-Sep-07 12:30N 27°56' W 082°27'0 0.0
2017-Sep-07 12:00N 27°56' W 082°27'0 0.0
2017-Sep-07 11:30N 27°56' W 082°27'0 0.0
2017-Sep-07 11:00N 27°56' W 082°27'0 0.0
2017-Sep-07 10:30N 27°56' W 082°27'0 0.0
2017-Sep-07 10:00N 27°56' W 082°27'0 0.0
2017-Sep-07 09:30N 27°56' W 082°27'0 0.0
2017-Sep-07 09:00N 27°56' W 082°27'0 0.0
2017-Sep-07 08:30N 27°56' W 082°27'0 0.0
2017-Sep-07 08:00N 27°56' W 082°27'0 0.0
2017-Sep-07 07:30N 27°56' W 082°27'0 0.0
2017-Sep-07 07:00N 27°56' W 082°27'0 0.0
2017-Sep-07 06:30N 27°56' W 082°27'0 0.0
2017-Sep-07 06:00N 27°56' W 082°27'0 0.0
2017-Sep-07 05:30N 27°56' W 082°27'0 0.0
2017-Sep-07 05:00N 27°56' W 082°27'0 0.0
2017-Sep-07 04:30N 27°56' W 082°27'0 0.0
2017-Sep-07 04:00N 27°56' W 082°27'0 0.0
2017-Sep-07 03:30N 27°56' W 082°27'0 0.0
2017-Sep-07 03:00N 27°56' W 082°27'0 0.0
2017-Sep-07 02:30N 27°56' W 082°27'0 0.0
2017-Sep-07 02:00N 27°56' W 082°27'0 0.0
2017-Sep-07 01:30N 27°56' W 082°27'0 0.0
2017-Sep-07 01:00N 27°56' W 082°27'0 0.0
2017-Sep-07 00:30N 27°56' W 082°27'0 0.0
2017-Sep-07 00:00N 27°56' W 082°27'0 0.0
2017-Sep-06 23:30N 27°56' W 082°27'0 0.0
2017-Sep-06 23:00N 27°56' W 082°27'0 0.0
2017-Sep-06 22:27N 27°56' W 082°27'0 0.0
2017-Sep-06 22:00N 27°56' W 082°27'1 1.4
2017-Sep-06 21:30N 27°56' W 082°27'1 1.7
2017-Sep-06 21:00N 27°56' W 082°27'2 4.5
2017-Sep-06 20:30N 27°53' W 082°26'5 9.9
2017-Sep-06 20:00N 27°49' W 082°27'5 9.5
2017-Sep-06 19:30N 27°46' W 082°31'5 9.5
2017-Sep-06 19:00N 27°41' W 082°34'  

Dump ship's entire track history